createdAt,value
2023-10-10T00:00:57.041Z,81.41
2023-10-10T00:03:29.096Z,81.99
2023-10-10T00:05:59.862Z,81.88
2023-10-10T00:08:35.141Z,82.29
2023-10-10T00:11:11.572Z,82.49
2023-10-10T00:13:43.733Z,83.52
2023-10-10T00:16:13.360Z,83.74
2023-10-10T00:18:44.764Z,84.00
2023-10-10T00:21:24.306Z,83.67
2023-10-10T00:23:55.359Z,83.92
2023-10-10T00:26:27.477Z,84.11
2023-10-10T00:28:56.602Z,84.40
2023-10-10T00:31:27.801Z,84.04
2023-10-10T00:33:57.792Z,84.52
2023-10-10T00:36:32.429Z,84.66
2023-10-10T00:39:07.217Z,84.58
2023-10-10T00:41:45.992Z,84.66
2023-10-10T00:44:17.210Z,84.82
2023-10-10T00:46:48.693Z,84.58
2023-10-10T00:49:18.508Z,84.30
2023-10-10T00:51:48.558Z,84.13
2023-10-10T00:54:27.823Z,84.14
2023-10-10T00:56:59.112Z,84.33
2023-10-10T00:59:37.165Z,84.52
2023-10-10T01:02:07.043Z,84.65
2023-10-10T01:04:49.760Z,85.11
2023-10-10T01:07:20.313Z,85.17
2023-10-10T01:09:59.364Z,85.30
2023-10-10T01:12:36.780Z,86.75
2023-10-10T01:15:15.402Z,87.17
2023-10-10T01:17:46.309Z,87.36
2023-10-10T01:20:26.491Z,87.26
2023-10-10T01:23:00.022Z,87.67
2023-10-10T01:25:47.408Z,87.72
2023-10-10T01:28:35.003Z,87.75
2023-10-10T01:31:08.528Z,87.89
2023-10-10T01:33:38.534Z,88.04
2023-10-10T01:36:13.927Z,88.10
2023-10-10T01:39:09.594Z,87.74
2023-10-10T01:41:47.218Z,87.45
2023-10-10T01:44:19.550Z,87.21
2023-10-10T01:46:48.938Z,87.72
2023-10-10T01:49:22.265Z,88.18
2023-10-10T01:51:56.856Z,88.21
2023-10-10T01:54:36.596Z,88.16
2023-10-10T01:57:09.039Z,88.58
2023-10-10T01:59:39.678Z,88.46
2023-10-10T02:02:12.523Z,88.89
2023-10-10T02:04:43.076Z,88.78
2023-10-10T02:07:18.646Z,88.07
2023-10-10T02:09:54.481Z,88.60
2023-10-10T02:12:28.062Z,87.43
2023-10-10T02:18:52.961Z,85.73
2023-10-10T02:22:31.548Z,85.30
2023-10-10T02:32:50.213Z,85.69
2023-10-10T02:35:28.343Z,86.30
2023-10-10T02:38:05.955Z,86.18
2023-10-10T02:48:35.530Z,87.19
2023-10-10T02:51:49.458Z,87.22
2023-10-10T03:01:50.908Z,90.84
2023-10-10T03:04:58.943Z,91.60
2023-10-10T03:07:54.207Z,92.53
2023-10-10T03:10:24.259Z,93.12
2023-10-10T03:12:53.929Z,93.23
2023-10-10T03:27:39.623Z,92.92
2023-10-10T03:34:30.769Z,93.81
2023-10-10T03:44:59.324Z,94.62
2023-10-10T03:51:11.194Z,94.38
2023-10-10T04:52:34.411Z,94.55
2023-10-10T05:39:26.713Z,99.14
2023-10-10T05:46:38.447Z,100.00
2023-10-10T06:01:17.474Z,100.00
2023-10-10T06:08:29.538Z,100.00
2023-10-10T06:11:02.233Z,100.00
2023-10-10T06:13:54.871Z,100.00
2023-10-10T06:24:00.657Z,100.00
2023-10-10T06:37:53.193Z,100.00
2023-10-10T07:07:46.547Z,100.00
2023-10-10T07:22:15.852Z,96.41
2023-10-10T07:29:23.070Z,96.50
2023-10-10T07:43:50.798Z,94.53
2023-10-10T07:47:15.663Z,94.06
2023-10-10T07:50:47.918Z,93.12
2023-10-10T08:03:48.157Z,90.41
2023-10-10T08:06:52.651Z,90.05
2023-10-10T08:14:03.540Z,89.09
2023-10-10T08:17:32.352Z,88.55
2023-10-10T08:39:51.007Z,85.43
2023-10-10T08:58:00.672Z,82.69
2023-10-10T09:00:39.265Z,82.92
2023-10-10T09:26:21.750Z,80.49
2023-10-10T09:33:26.651Z,80.45
2023-10-10T09:36:52.664Z,79.41
2023-10-10T09:40:24.452Z,79.38
2023-10-10T09:58:27.813Z,78.29
2023-10-10T10:01:47.237Z,77.36
2023-10-10T10:08:35.969Z,76.00
2023-10-10T10:12:01.931Z,76.24
2023-10-10T10:14:48.323Z,75.47
2023-10-10T10:20:47.592Z,73.92
2023-10-10T10:24:22.937Z,73.90
2023-10-10T10:27:25.420Z,73.10
2023-10-10T10:30:48.509Z,73.61
2023-10-10T10:37:00.642Z,73.80
2023-10-10T10:42:39.567Z,73.58
2023-10-10T10:45:35.533Z,73.12
2023-10-10T10:58:31.708Z,70.69
2023-10-10T11:01:09.092Z,70.76
2023-10-10T11:03:47.735Z,70.91
2023-10-10T11:06:20.542Z,70.81
2023-10-10T11:09:16.703Z,70.81
2023-10-10T11:11:46.632Z,70.41
2023-10-10T11:14:35.937Z,69.99
2023-10-10T11:39:20.315Z,69.29
2023-10-10T11:42:47.207Z,67.63
2023-10-10T11:45:31.998Z,67.51
2023-10-10T11:48:02.177Z,67.57
2023-10-10T11:50:45.213Z,67.61
2023-10-10T11:53:20.615Z,67.33
2023-10-10T11:55:49.695Z,66.77
2023-10-10T11:58:18.697Z,67.30
2023-10-10T12:00:46.679Z,67.19
2023-10-10T12:05:52.714Z,67.12
2023-10-10T12:08:24.447Z,66.13
2023-10-10T12:11:03.567Z,66.01
2023-10-10T12:13:37.169Z,65.14
2023-10-10T12:16:11.717Z,65.40
2023-10-10T12:18:45.389Z,64.61
2023-10-10T12:21:15.421Z,65.02
2023-10-10T12:23:43.354Z,64.40
2023-10-10T12:26:12.456Z,64.51
2023-10-10T12:28:41.084Z,63.93
2023-10-10T12:31:16.854Z,62.71
2023-10-10T12:33:46.453Z,61.47
2023-10-10T12:36:14.080Z,62.66
2023-10-10T12:38:41.807Z,61.72
2023-10-10T12:41:12.633Z,60.42
2023-10-10T12:43:42.393Z,61.06
2023-10-10T12:46:11.139Z,60.37
2023-10-10T12:48:40.912Z,60.35
2023-10-10T12:51:10.760Z,60.41
2023-10-10T12:53:41.331Z,59.61
2023-10-10T12:56:12.793Z,58.96
2023-10-10T12:58:44.413Z,59.07
2023-10-10T13:01:16.973Z,59.32
2023-10-10T13:03:49.194Z,59.19
2023-10-10T13:06:17.485Z,59.42
2023-10-10T13:08:49.574Z,59.68
2023-10-10T13:11:20.299Z,58.99
2023-10-10T13:13:52.974Z,58.61
2023-10-10T13:16:28.887Z,58.44
2023-10-10T13:18:57.623Z,59.42
2023-10-10T13:21:25.459Z,59.33
2023-10-10T13:23:58.663Z,59.81
2023-10-10T13:26:28.630Z,59.47
2023-10-10T13:28:58.914Z,59.57
2023-10-10T13:31:30.438Z,58.76
2023-10-10T13:33:58.455Z,58.63
2023-10-10T13:36:26.823Z,58.20
2023-10-10T13:38:59.096Z,58.39
2023-10-10T13:41:29.072Z,57.77
2023-10-10T13:44:00.782Z,58.42
2023-10-10T13:46:29.783Z,58.71
2023-10-10T13:48:57.456Z,59.53
2023-10-10T13:51:28.995Z,59.55
2023-10-10T13:53:58.598Z,58.75
2023-10-10T13:56:32.346Z,59.31
2023-10-10T13:59:01.721Z,59.30
2023-10-10T14:01:37.856Z,58.93
2023-10-10T14:04:17.267Z,59.45
2023-10-10T14:06:49.058Z,59.31
2023-10-10T14:09:23.209Z,59.43
2023-10-10T14:11:52.055Z,59.59
2023-10-10T14:14:21.401Z,59.55
2023-10-10T14:16:49.305Z,59.52
2023-10-10T14:19:16.991Z,60.35
2023-10-10T14:21:44.714Z,60.73
2023-10-10T14:24:14.896Z,60.77
2023-10-10T14:26:44.700Z,60.35
2023-10-10T14:29:14.502Z,60.80
2023-10-10T14:31:44.659Z,60.42
2023-10-10T14:34:20.467Z,60.26
2023-10-10T14:36:51.867Z,60.10
2023-10-10T14:39:30.866Z,60.59
2023-10-10T14:41:59.022Z,61.09
2023-10-10T14:44:27.493Z,60.96
2023-10-10T14:46:57.211Z,60.77
2023-10-10T14:49:30.276Z,61.51
2023-10-10T14:52:01.835Z,61.58
2023-10-10T14:54:29.438Z,61.95
2023-10-10T14:56:57.526Z,61.64
2023-10-10T14:59:25.724Z,61.63
2023-10-10T15:01:54.385Z,61.77
2023-10-10T15:04:23.685Z,61.60
2023-10-10T15:06:55.163Z,62.15
2023-10-10T15:09:25.671Z,62.27
2023-10-10T15:11:54.213Z,62.55
2023-10-10T15:14:22.600Z,62.76
2023-10-10T15:16:50.732Z,62.56
2023-10-10T15:19:18.745Z,62.67
2023-10-10T15:21:49.588Z,62.76
2023-10-10T15:24:17.914Z,62.75
2023-10-10T15:26:49.041Z,63.09
2023-10-10T15:29:18.356Z,63.70
2023-10-10T15:31:46.680Z,64.01
2023-10-10T15:34:15.542Z,64.83
2023-10-10T15:36:45.115Z,65.10
2023-10-10T15:39:14.880Z,65.38
2023-10-10T15:41:44.355Z,65.52
2023-10-10T15:44:13.540Z,66.50
2023-10-10T15:46:44.704Z,66.63
2023-10-10T15:49:25.181Z,67.37
2023-10-10T15:52:04.645Z,68.28
2023-10-10T15:54:36.371Z,68.73
2023-10-10T15:57:08.500Z,69.42
2023-10-10T15:59:37.010Z,69.16
2023-10-10T16:02:10.012Z,69.48
2023-10-10T16:04:41.397Z,69.08
2023-10-10T16:07:09.200Z,69.54
2023-10-10T16:09:37.236Z,70.27
2023-10-10T16:12:08.949Z,70.44
2023-10-10T16:14:37.916Z,70.78
2023-10-10T16:17:05.982Z,70.68
2023-10-10T16:19:35.505Z,71.24
2023-10-10T16:22:03.983Z,71.54
2023-10-10T16:24:31.580Z,71.43
2023-10-10T16:27:01.453Z,71.43
2023-10-10T16:29:34.112Z,71.09
2023-10-10T16:32:02.505Z,71.13
2023-10-10T16:34:33.444Z,71.00
2023-10-10T16:37:01.160Z,70.27
2023-10-10T16:39:28.887Z,70.13
2023-10-10T16:41:59.695Z,69.82
2023-10-10T16:44:28.854Z,69.53
2023-10-10T16:46:56.649Z,69.44
2023-10-10T16:49:25.232Z,70.32
2023-10-10T16:51:55.311Z,70.12
2023-10-10T16:54:23.013Z,69.47
2023-10-10T16:56:50.728Z,69.87
2023-10-10T16:59:18.650Z,70.07
2023-10-10T17:01:47.783Z,70.18
2023-10-10T17:04:19.919Z,70.63
2023-10-10T17:06:49.898Z,70.88
2023-10-10T17:09:17.872Z,71.18
2023-10-10T17:11:51.495Z,71.15
2023-10-10T17:14:19.975Z,70.90
2023-10-10T17:16:48.961Z,71.18
2023-10-10T17:19:18.255Z,71.18
2023-10-10T17:21:48.009Z,71.98
2023-10-10T17:24:17.500Z,71.74
2023-10-10T17:26:45.571Z,71.97
2023-10-10T17:29:13.804Z,72.09
2023-10-10T17:31:41.924Z,72.02
2023-10-10T17:34:16.224Z,72.42
2023-10-10T17:36:44.104Z,72.65
2023-10-10T17:39:16.588Z,72.98
2023-10-10T17:41:48.983Z,73.48
2023-10-10T17:44:18.782Z,73.87
2023-10-10T17:46:47.813Z,74.27
2023-10-10T17:49:17.232Z,74.45
2023-10-10T17:51:46.132Z,74.83
2023-10-10T17:54:16.911Z,74.75
2023-10-10T17:56:45.885Z,75.08
2023-10-10T17:59:13.779Z,75.52
2023-10-10T18:01:42.932Z,75.94
2023-10-10T18:04:11.075Z,76.02
2023-10-10T18:06:40.143Z,76.11
2023-10-10T18:09:10.101Z,76.26
2023-10-10T18:11:38.340Z,76.47
2023-10-10T18:14:07.352Z,77.00
2023-10-10T18:16:35.544Z,77.34
2023-10-10T18:19:06.378Z,77.24
2023-10-10T18:21:34.580Z,77.33
2023-10-10T18:24:07.356Z,77.89
2023-10-10T18:26:38.660Z,78.69
2023-10-10T18:29:06.677Z,78.73
2023-10-10T18:31:35.546Z,79.04
2023-10-10T18:34:05.861Z,79.64
2023-10-10T18:36:35.334Z,79.74
2023-10-10T18:39:05.033Z,79.93
2023-10-10T18:41:32.733Z,79.89
2023-10-10T18:44:00.524Z,80.36
2023-10-10T18:46:28.367Z,80.35
2023-10-10T18:48:58.350Z,81.20
2023-10-10T18:51:26.065Z,81.40
2023-10-10T18:53:55.911Z,81.43
2023-10-10T18:56:26.258Z,81.24
2023-10-10T18:58:53.944Z,81.41
2023-10-10T19:01:23.117Z,81.64
2023-10-10T19:03:52.068Z,81.50
2023-10-10T19:06:20.377Z,81.48
2023-10-10T19:08:48.368Z,81.64
2023-10-10T19:11:17.735Z,81.33
2023-10-10T19:13:50.440Z,80.99
2023-10-10T19:16:18.764Z,80.94
2023-10-10T19:18:47.100Z,80.83
2023-10-10T19:21:16.996Z,80.96
2023-10-10T19:23:45.368Z,80.55
2023-10-10T19:26:14.138Z,81.09
2023-10-10T19:28:42.879Z,81.53
2023-10-10T19:31:15.383Z,81.94
2023-10-10T19:33:43.552Z,81.74
2023-10-10T19:36:11.269Z,82.01
2023-10-10T19:38:41.394Z,81.99
2023-10-10T19:41:11.023Z,82.27
2023-10-10T19:43:39.276Z,82.24
2023-10-10T19:46:11.229Z,81.89
2023-10-10T19:48:42.804Z,81.82
2023-10-10T19:51:18.499Z,81.50
2023-10-10T19:53:47.206Z,81.90
2023-10-10T19:56:14.940Z,81.24
2023-10-10T19:58:43.607Z,81.32
2023-10-10T20:01:11.276Z,81.98
2023-10-10T20:03:43.589Z,81.78
2023-10-10T20:06:21.142Z,81.25
2023-10-10T20:08:49.757Z,81.35
2023-10-10T20:11:17.500Z,81.62
2023-10-10T20:13:46.442Z,81.36
2023-10-10T20:16:15.898Z,81.10
2023-10-10T20:18:45.997Z,81.47
2023-10-10T20:21:14.207Z,81.35
2023-10-10T20:23:43.909Z,81.50
2023-10-10T20:26:18.333Z,81.88
2023-10-10T20:28:47.684Z,82.13
2023-10-10T20:31:17.773Z,82.35
2023-10-10T20:33:48.443Z,82.33
2023-10-10T20:36:17.247Z,82.54
2023-10-10T20:38:45.363Z,83.00
2023-10-10T20:41:14.835Z,83.30
2023-10-10T20:43:43.132Z,83.39
2023-10-10T20:46:13.070Z,83.90
2023-10-10T20:48:40.956Z,84.09
2023-10-10T20:51:14.660Z,83.67
2023-10-10T20:53:43.128Z,83.97
2023-10-10T20:56:10.952Z,84.34
2023-10-10T20:58:39.529Z,85.42
2023-10-10T21:01:10.794Z,85.61
2023-10-10T21:03:39.275Z,85.54
2023-10-10T21:06:07.316Z,86.00
2023-10-10T21:08:36.359Z,85.79
2023-10-10T21:11:09.031Z,86.43
2023-10-10T21:13:36.896Z,86.55
2023-10-10T21:16:15.338Z,86.30
2023-10-10T21:18:45.374Z,86.77
2023-10-10T21:21:13.344Z,87.07
2023-10-10T21:23:43.553Z,87.06
2023-10-10T21:26:13.026Z,87.23
2023-10-10T21:28:40.710Z,87.73
2023-10-10T21:31:11.101Z,87.77
2023-10-10T21:33:41.431Z,88.05
2023-10-10T21:36:10.095Z,88.27
2023-10-10T21:38:37.879Z,88.08
2023-10-10T21:41:07.633Z,88.02
2023-10-10T21:43:35.435Z,88.05
2023-10-10T21:46:06.348Z,87.97
2023-10-10T21:48:34.138Z,87.94
2023-10-10T21:51:04.336Z,87.87
2023-10-10T21:53:33.121Z,87.95
2023-10-10T21:56:01.364Z,88.29
2023-10-10T21:58:30.272Z,88.07
2023-10-10T22:00:59.424Z,87.91
2023-10-10T22:03:27.516Z,88.10
2023-10-10T22:05:56.261Z,88.92
2023-10-10T22:08:27.024Z,88.70
2023-10-10T22:10:57.750Z,88.61
2023-10-10T22:13:26.904Z,88.98
2023-10-10T22:15:55.935Z,88.82
2023-10-10T22:18:23.717Z,89.33
2023-10-10T22:20:51.427Z,89.04
2023-10-10T22:23:19.054Z,89.23
2023-10-10T22:25:46.987Z,90.12
2023-10-10T22:28:14.688Z,90.02
2023-10-10T22:30:42.350Z,89.90
2023-10-10T22:33:12.612Z,90.29
2023-10-10T22:35:41.004Z,90.59
2023-10-10T22:38:14.037Z,89.88
2023-10-10T22:40:41.898Z,89.99
2023-10-10T22:43:14.969Z,89.98
2023-10-10T22:45:45.174Z,89.97
2023-10-10T22:48:15.917Z,90.48
2023-10-10T22:50:44.054Z,90.78
2023-10-10T22:53:13.418Z,90.48
2023-10-10T22:55:42.653Z,89.93
2023-10-10T22:58:10.424Z,90.11
2023-10-10T23:00:38.887Z,90.42
2023-10-10T23:03:10.572Z,91.06
2023-10-10T23:05:42.983Z,91.45
2023-10-10T23:08:11.818Z,91.49
2023-10-10T23:10:40.514Z,92.19
2023-10-10T23:13:13.927Z,91.76
2023-10-10T23:15:41.917Z,91.90
2023-10-10T23:18:11.978Z,91.86
2023-10-10T23:20:42.164Z,92.33
2023-10-10T23:23:11.737Z,91.90
2023-10-10T23:25:39.449Z,91.72
2023-10-10T23:28:09.575Z,92.02
2023-10-10T23:30:39.992Z,92.50
2023-10-10T23:33:11.833Z,92.41
2023-10-10T23:35:41.784Z,92.72
2023-10-10T23:38:10.464Z,92.26
2023-10-10T23:40:42.284Z,92.75
2023-10-10T23:43:12.088Z,92.58
2023-10-10T23:45:43.206Z,92.32
2023-10-10T23:48:16.747Z,91.93
2023-10-10T23:50:46.877Z,91.94
2023-10-10T23:53:15.162Z,92.30
2023-10-10T23:55:46.689Z,91.99
2023-10-10T23:58:15.426Z,91.94
